Wooster, AR (72181)

7:57 PM CST on November 21, 2014 (GMT -0600)
North Conway Lakeview Acres Rd | Change Station
CLOSE
Current Station
Personal Weather Station
Location: Conway, AR
Elevation: 443 ft
Nearby Weather Stations

Elev 443 ft 35.12 °N, 92.44 °W | Updated 14 minutes ago

Overcast
Overcast
46.0 °F
Feels Like 46 °F
N
0.0
Wind Variable Wind from East
Gusts 0.0 mph

Today
High -- | Low -- °F
--% Chance of Precip.
Yesterday
High -- | Low -- °F
Precip. -- in
6:50 AM 5:00 PM
Waning Crescent, 0% visible
Pressure 30.26 in
Visibility 6.0 miles
Clouds Mostly Cloudy 400 ft
Overcast 7000 ft
Windchill 46 °F
Dew Point 45 °F
Humidity 98%
Rainfall 0.07 in
Snow Depth Not available.
UV 0 out of 12
Pollen .50 out of 12
Air Quality Not available.
Flu Activity Not available.
SPECI KLRF 220142Z AUTO 08003KT 6SM BR BKN004 OVC070 08/08 A3026 RMK AO2 DZE0102

More Conditions Fewer Conditions

Pressure 30.26 in
Visibility 6.0 miles
Clouds Mostly Cloudy 400 ft
Overcast 7000 ft
Windchill 46 °F
Dew Point 45 °F
Humidity 98%
Rainfall 0.07 in
Snow Depth Not available.
UV 0 out of 12
Pollen .50 out of 12
Air Quality Not available.
Flu Activity Not available.
SPECI KLRF 220142Z AUTO 08003KT 6SM BR BKN004 OVC070 08/08 A3026 RMK AO2 DZE0102

More Conditions Fewer Conditions

10-Day Weather Forecast

Almanac

Astronomy

Nov. 21, 2014 Rise Set
Actual Time
Civil Twilight
Nautical Twilight
Astronomical Twilight
Moon
Length of Visible Light
Length of Day
Tomorrow will be .
, % of the Moon is Illuminated

Today's Extremes

State Highs State Lows

Community

WunderPhotos

Upload Photos

1,772,750 photos uploaded!

WunderBlogs® & News

Nearby

Air Quality

  Air Quality AQ Index Pollutant
Not available.

Snow Depth

Station Depth Elevation

Earthquake Activity

City Distance Mag. Time & Date
Minimum magnitude displayed is 2.5.

Coastal Water Temperatures

Place Temperature

Nearby Weather Stations